Time;durP1;ratioP1;P1;durP2;ratioP2;P2;SDS_P1;SDS_P2;PMS_P1;PMS_P2;Temp;Humidity;BMP_temperature;BMP_pressure;BME280_temperature;BME280_humidity;BME280_pressure;Samples;Min_cycle;Max_cycle;Signal;HPM_P1;HPM_P2
2023/04/24 03:01:59;;;;;;;22.77;21.67;;;11.00;99.90;;;;;;5264877;23;20240;-76
2023/04/24 03:04:25;;;;;;;22.93;21.87;;;10.90;99.90;;;;;;4990753;28;20180;-76
2023/04/24 03:06:54;;;;;;;26.27;25.07;;;10.90;99.90;;;;;;4991370;28;20176;-76
2023/04/24 03:09:23;;;;;;;15.87;15.13;;;11.00;99.90;;;;;;4990455;28;20698;-76
2023/04/24 03:11:49;;;;;;;10.73;10.27;;;11.00;99.90;;;;;;4991473;28;20216;-76
2023/04/24 03:14:16;;;;;;;10.57;9.93;;;11.00;99.90;;;;;;4991934;28;20189;-76
2023/04/24 03:16:42;;;;;;;16.90;16.10;;;11.10;99.90;;;;;;5001126;23;20756;-78
2023/04/24 03:19:07;;;;;;;7.97;7.30;;;11.10;99.90;;;;;;4963806;28;20285;-77
2023/04/24 03:21:33;;;;;;;8.80;8.17;;;11.00;99.90;;;;;;4987132;28;20291;-77
2023/04/24 03:24:00;;;;;;;8.97;8.27;;;11.00;99.90;;;;;;4993254;28;20648;-77
2023/04/24 03:26:26;;;;;;;11.93;11.03;;;10.90;99.90;;;;;;4981949;28;20205;-77
2023/04/24 03:28:52;;;;;;;11.10;10.60;;;10.80;99.90;;;;;;4964146;28;20248;-77
2023/04/24 03:31:18;;;;;;;11.77;11.20;;;10.90;99.90;;;;;;4954805;28;20201;-79
2023/04/24 03:33:44;;;;;;;11.97;11.47;;;10.80;99.90;;;;;;4967567;28;20185;-75
2023/04/24 03:36:10;;;;;;;12.37;11.80;;;10.80;99.90;;;;;;4952137;28;20209;-76
2023/04/24 03:38:36;;;;;;;12.20;11.53;;;10.80;99.90;;;;;;4955005;29;20363;-77
2023/04/24 03:41:02;;;;;;;12.07;11.27;;;10.80;99.90;;;;;;4958655;28;20272;-77
2023/04/24 03:43:28;;;;;;;11.53;10.97;;;10.80;99.90;;;;;;4957696;29;20186;-77
2023/04/24 03:45:53;;;;;;;12.97;12.40;;;10.80;99.90;;;;;;4958334;29;20254;-77
2023/04/24 03:48:19;;;;;;;12.40;11.33;;;10.80;99.90;;;;;;4956695;29;20189;-77
2023/04/24 03:50:45;;;;;;;12.83;12.10;;;10.80;99.90;;;;;;4955816;29;20265;-76
2023/04/24 03:53:11;;;;;;;16.00;15.30;;;10.90;99.90;;;;;;4962438;28;20644;-75
2023/04/24 03:55:37;;;;;;;24.97;23.77;;;10.90;99.90;;;;;;4961153;28;20207;-77
2023/04/24 03:58:02;;;;;;;13.63;12.97;;;10.90;99.90;;;;;;4952367;29;20264;-77
2023/04/24 04:00:32;;;;;;;19.57;18.63;;;10.90;99.90;;;;;;4968223;28;20181;-77
2023/04/24 04:02:58;;;;;;;25.97;24.57;;;10.90;99.90;;;;;;4972019;28;20239;-77
2023/04/24 04:05:24;;;;;;;25.70;24.43;;;11.00;99.90;;;;;;4972282;28;20237;-77
2023/04/24 04:07:50;;;;;;;18.00;17.13;;;10.90;99.90;;;;;;4970516;28;20564;-77
2023/04/24 04:10:17;;;;;;;12.87;11.87;;;10.90;99.90;;;;;;4971443;28;20177;-77
2023/04/24 04:12:42;;;;;;;11.77;11.27;;;10.90;99.90;;;;;;4971322;28;20209;-77
2023/04/24 04:15:08;;;;;;;8.23;7.93;;;11.00;99.90;;;;;;4977076;28;20264;-77
2023/04/24 04:17:34;;;;;;;7.27;6.97;;;10.90;99.90;;;;;;4973806;28;20193;-77
2023/04/24 04:20:00;;;;;;;7.00;6.60;;;10.80;99.90;;;;;;4973253;28;20173;-77
2023/04/24 04:22:26;;;;;;;7.90;7.57;;;10.70;99.90;;;;;;4976323;28;20822;-77
2023/04/24 04:24:52;;;;;;;12.50;11.77;;;10.60;99.90;;;;;;4976072;28;20235;-77
2023/04/24 04:27:18;;;;;;;13.80;13.10;;;10.60;99.90;;;;;;4976125;28;20227;-77
2023/04/24 04:29:44;;;;;;;8.83;8.50;;;10.60;99.90;;;;;;4975706;28;20189;-75
2023/04/24 04:32:10;;;;;;;13.93;13.10;;;10.60;99.90;;;;;;4975905;28;20246;-77
2023/04/24 04:34:37;;;;;;;14.23;13.43;;;10.60;99.90;;;;;;4976057;28;20208;-76
2023/04/24 04:37:03;;;;;;;21.30;20.20;;;10.70;99.90;;;;;;4976791;28;20267;-77
2023/04/24 04:39:30;;;;;;;30.77;29.27;;;10.80;99.90;;;;;;4982576;28;20621;-77
2023/04/24 04:41:56;;;;;;;10.87;10.43;;;10.80;99.90;;;;;;4980235;28;20188;-77
2023/04/24 04:44:21;;;;;;;11.73;11.13;;;10.90;99.90;;;;;;4982232;28;20185;-77
2023/04/24 04:46:47;;;;;;;12.87;12.23;;;11.10;99.90;;;;;;4982494;28;20213;-77
2023/04/24 04:49:16;;;;;;;10.20;9.70;;;11.10;99.90;;;;;;4982572;28;20271;-77
2023/04/24 04:51:42;;;;;;;12.33;11.83;;;11.10;99.90;;;;;;4981880;28;20217;-76
2023/04/24 04:54:08;;;;;;;12.53;11.93;;;11.00;99.90;;;;;;4982727;28;20196;-77
2023/04/24 04:56:33;;;;;;;20.90;19.70;;;11.10;99.90;;;;;;4980203;28;20252;-77
2023/04/24 04:58:59;;;;;;;30.60;29.20;;;10.90;99.90;;;;;;4976675;28;20224;-77
2023/04/24 05:01:27;;;;;;;15.07;14.27;;;10.70;99.90;;;;;;4974141;28;20199;-74
2023/04/24 05:03:53;;;;;;;5.17;4.90;;;10.60;99.90;;;;;;4973710;28;20192;-75
2023/04/24 05:06:19;;;;;;;6.67;6.20;;;10.50;99.90;;;;;;4974805;28;20575;-75
2023/04/24 05:08:45;;;;;;;7.90;7.50;;;10.50;99.90;;;;;;4974225;28;20193;-74
2023/04/24 05:11:11;;;;;;;8.27;7.87;;;10.50;99.90;;;;;;4975002;28;20289;-74
2023/04/24 05:13:36;;;;;;;7.60;7.23;;;10.50;99.90;;;;;;4974141;28;20208;-75
2023/04/24 05:16:02;;;;;;;5.33;4.90;;;10.50;99.90;;;;;;4974689;28;20220;-74
2023/04/24 05:18:28;;;;;;;4.87;4.67;;;10.50;99.90;;;;;;4974798;28;20200;-74
2023/04/24 05:20:54;;;;;;;7.93;7.47;;;10.40;99.90;;;;;;4975028;28;20189;-73
2023/04/24 05:23:19;;;;;;;13.23;12.63;;;10.40;99.90;;;;;;4974562;28;20204;-73
2023/04/24 05:25:46;;;;;;;4.77;4.57;;;10.30;99.90;;;;;;4974501;28;20205;-74
2023/04/24 05:28:11;;;;;;;5.73;5.50;;;10.20;99.90;;;;;;4974160;28;20648;-73
2023/04/24 05:30:37;;;;;;;15.03;14.33;;;10.10;99.90;;;;;;4973795;28;20276;-74
2023/04/24 05:33:03;;;;;;;7.10;6.60;;;10.10;99.90;;;;;;4973154;28;20563;-74
2023/04/24 05:35:29;;;;;;;8.90;8.50;;;10.10;99.90;;;;;;4973971;28;20677;-74
2023/04/24 05:37:55;;;;;;;5.80;5.50;;;10.20;99.90;;;;;;4972524;28;20188;-73
2023/04/24 05:40:20;;;;;;;5.90;5.70;;;10.20;99.90;;;;;;4974243;28;20271;-74
2023/04/24 05:42:46;;;;;;;9.43;8.83;;;10.20;99.90;;;;;;4974338;28;20215;-73
2023/04/24 05:45:16;;;;;;;14.77;14.03;;;10.30;99.90;;;;;;4973581;28;20209;-72
2023/04/24 05:47:43;;;;;;;9.90;9.50;;;10.30;99.90;;;;;;4972651;28;20201;-73
2023/04/24 05:50:10;;;;;;;8.67;8.27;;;10.40;99.90;;;;;;4974046;28;20193;-73
2023/04/24 05:52:36;;;;;;;9.27;8.43;;;10.40;99.90;;;;;;4973628;28;20677;-73
2023/04/24 05:55:02;;;;;;;8.50;8.10;;;10.50;99.90;;;;;;4972650;28;20205;-74
2023/04/24 05:57:27;;;;;;;11.40;10.73;;;10.50;99.90;;;;;;4973620;28;20211;-73
2023/04/24 05:59:53;;;;;;;13.30;12.70;;;10.50;99.90;;;;;;4972309;28;20189;-73
2023/04/24 06:02:19;;;;;;;10.53;9.93;;;10.50;99.90;;;;;;4974076;28;20181;-74
2023/04/24 06:04:45;;;;;;;12.43;11.73;;;10.60;99.90;;;;;;4972645;28;20448;-74
2023/04/24 06:07:11;;;;;;;13.03;12.43;;;10.60;99.90;;;;;;4971853;28;20677;-73
2023/04/24 06:09:37;;;;;;;8.17;7.77;;;10.60;99.90;;;;;;4974097;28;20196;-74
2023/04/24 06:12:03;;;;;;;7.40;7.10;;;10.70;99.90;;;;;;4974662;28;20201;-72
2023/04/24 06:14:29;;;;;;;9.90;9.40;;;10.70;99.90;;;;;;4974168;28;20571;-73
2023/04/24 06:16:54;;;;;;;8.03;7.53;;;10.80;99.90;;;;;;4974609;28;20229;-76
2023/04/24 06:19:20;;;;;;;13.40;12.70;;;10.80;99.90;;;;;;4973812;28;20185;-74
2023/04/24 06:21:46;;;;;;;9.47;9.07;;;10.80;99.90;;;;;;4972977;28;20189;-74
2023/04/24 06:24:14;;;;;;;7.07;6.77;;;10.90;99.90;;;;;;4973147;28;20185;-73
2023/04/24 06:26:40;;;;;;;7.17;6.87;;;10.90;99.90;;;;;;4973672;28;20209;-74
2023/04/24 06:29:07;;;;;;;7.30;6.67;;;10.90;99.90;;;;;;4971399;28;20200;-74
2023/04/24 06:31:36;;;;;;;7.00;6.60;;;10.80;99.90;;;;;;4973112;28;20205;-74
2023/04/24 06:34:03;;;;;;;6.20;5.70;;;10.80;99.90;;;;;;4972302;28;20240;-74
2023/04/24 06:36:30;;;;;;;6.03;5.63;;;10.80;99.90;;;;;;4973304;28;20197;-74
2023/04/24 06:38:57;;;;;;;9.60;9.20;;;10.70;99.90;;;;;;4972757;28;20181;-75
2023/04/24 06:41:22;;;;;;;9.73;9.23;;;10.70;99.90;;;;;;4973335;28;20185;-74
2023/04/24 06:43:48;;;;;;;9.83;9.23;;;10.80;99.90;;;;;;4971973;28;20734;-75
2023/04/24 06:46:14;;;;;;;12.87;12.27;;;10.90;99.90;;;;;;4973474;28;20572;-74
2023/04/24 06:48:40;;;;;;;10.43;9.93;;;11.10;99.90;;;;;;4973569;28;20216;-75
2023/04/24 06:51:05;;;;;;;10.40;9.83;;;12.00;99.90;;;;;;4973192;28;20645;-75
2023/04/24 06:53:31;;;;;;;6.67;6.37;;;12.50;99.90;;;;;;4972984;28;20186;-74
2023/04/24 06:55:57;;;;;;;19.03;18.20;;;13.50;99.90;;;;;;4971590;28;20207;-74
2023/04/24 06:58:25;;;;;;;7.20;6.90;;;14.70;99.90;;;;;;4967469;28;20208;-73
2023/04/24 07:00:50;;;;;;;5.70;5.50;;;15.70;99.90;;;;;;4960385;28;20183;-75
2023/04/24 07:03:16;;;;;;;13.00;12.27;;;16.50;99.90;;;;;;4971932;28;20267;-74
2023/04/24 07:05:42;;;;;;;7.70;7.40;;;17.20;99.90;;;;;;4971110;28;20227;-75
2023/04/24 07:08:08;;;;;;;7.07;6.67;;;17.30;99.90;;;;;;4972159;28;20764;-75
2023/04/24 07:10:34;;;;;;;6.93;6.43;;;17.60;99.90;;;;;;4972511;28;20650;-75
2023/04/24 07:13:01;;;;;;;5.03;4.80;;;18.00;99.90;;;;;;4972274;28;20216;-74
2023/04/24 07:15:27;;;;;;;6.47;6.07;;;18.20;99.90;;;;;;4971237;28;20213;-74
2023/04/24 07:17:52;;;;;;;7.13;6.83;;;18.20;99.90;;;;;;4972015;28;20525;-75
2023/04/24 07:20:18;;;;;;;13.03;12.50;;;18.30;99.90;;;;;;4971298;28;20187;-75
2023/04/24 07:22:44;;;;;;;15.53;14.83;;;18.10;99.90;;;;;;4971331;28;20216;-75
2023/04/24 07:25:10;;;;;;;5.63;5.13;;;17.40;99.90;;;;;;4971135;28;20268;-75
2023/04/24 07:27:36;;;;;;;5.47;5.10;;;16.30;99.90;;;;;;4971879;28;20184;-75
2023/04/24 07:30:03;;;;;;;11.43;10.83;;;15.80;99.90;;;;;;4971556;28;20316;-75
2023/04/24 07:32:30;;;;;;;18.43;17.40;;;16.30;99.90;;;;;;4972402;28;20362;-75
2023/04/24 07:34:55;;;;;;;10.63;9.93;;;16.70;99.90;;;;;;4971791;28;20271;-75
2023/04/24 07:37:22;;;;;;;15.30;14.50;;;16.20;99.90;;;;;;4971973;28;20185;-75
2023/04/24 07:39:48;;;;;;;21.80;20.40;;;16.10;99.90;;;;;;4971795;28;20603;-75
2023/04/24 07:42:13;;;;;;;20.40;19.50;;;16.10;99.90;;;;;;4970763;28;20181;-75
2023/04/24 07:44:39;;;;;;;5.00;4.80;;;15.70;99.90;;;;;;4971968;28;20205;-74
2023/04/24 07:47:05;;;;;;;44.90;42.67;;;14.60;99.90;;;;;;4970536;28;20204;-74
2023/04/24 07:49:31;;;;;;;42.67;40.60;;;13.90;99.90;;;;;;4970424;28;20177;-74
2023/04/24 07:51:57;;;;;;;13.20;12.57;;;13.40;99.90;;;;;;4971286;28;20208;-74
2023/04/24 07:54:23;;;;;;;4.33;4.03;;;12.90;99.90;;;;;;4971482;28;20280;-74
2023/04/24 07:56:49;;;;;;;4.33;4.03;;;12.70;99.90;;;;;;4975326;28;20196;-74
2023/04/24 07:59:15;;;;;;;19.50;18.50;;;12.50;99.90;;;;;;4975580;28;20188;-74
2023/04/24 08:01:41;;;;;;;22.03;20.87;;;12.50;99.90;;;;;;4976022;28;20181;-74
2023/04/24 08:04:07;;;;;;;14.27;13.60;;;12.70;99.90;;;;;;4975575;28;20185;-74
2023/04/24 08:06:33;;;;;;;4.00;3.70;;;13.00;99.90;;;;;;4975659;28;20240;-74
2023/04/24 08:09:00;;;;;;;5.63;4.17;;;13.20;99.90;;;;;;4975154;28;20212;-74
2023/04/24 08:11:26;;;;;;;5.20;5.00;;;13.30;99.90;;;;;;4975359;28;20205;-74
2023/04/24 08:13:52;;;;;;;6.47;6.00;;;13.60;99.90;;;;;;4975490;28;20177;-73
2023/04/24 08:16:17;;;;;;;12.07;11.47;;;13.90;99.90;;;;;;4975290;28;20217;-73
2023/04/24 08:18:43;;;;;;;39.83;37.83;;;14.70;99.90;;;;;;4973560;28;20178;-74
2023/04/24 08:21:09;;;;;;;25.17;23.63;;;15.10;99.90;;;;;;4974226;28;20194;-74
2023/04/24 08:23:35;;;;;;;4.70;4.40;;;14.40;99.90;;;;;;4975209;28;20606;-74
2023/04/24 08:26:00;;;;;;;3.60;3.50;;;13.80;99.90;;;;;;4975613;28;20275;-73
2023/04/24 08:28:26;;;;;;;5.13;4.93;;;13.20;99.90;;;;;;4974932;28;20173;-76
2023/04/24 08:30:54;;;;;;;4.47;4.03;;;13.00;99.90;;;;;;4974005;28;20181;-74
2023/04/24 08:33:23;;;;;;;7.27;6.97;;;12.90;99.90;;;;;;4975434;28;20232;-74
2023/04/24 08:35:49;;;;;;;3.80;3.60;;;13.10;99.90;;;;;;4973919;28;20578;-74
2023/04/24 08:38:16;;;;;;;4.77;4.47;;;13.80;99.90;;;;;;4975401;28;20271;-74
2023/04/24 08:40:42;;;;;;;4.67;4.37;;;13.90;99.90;;;;;;4975720;28;20236;-74
2023/04/24 08:43:08;;;;;;;4.20;4.00;;;14.00;99.90;;;;;;4973776;28;20652;-75
2023/04/24 08:45:34;;;;;;;4.60;4.20;;;13.90;99.90;;;;;;4973525;28;20201;-75
2023/04/24 08:48:01;;;;;;;4.47;4.27;;;13.70;99.90;;;;;;4974836;28;20543;-74
2023/04/24 08:50:28;;;;;;;4.73;4.43;;;13.80;99.90;;;;;;4975407;28;20181;-74
2023/04/24 08:52:54;;;;;;;5.17;4.70;;;13.60;99.90;;;;;;4973903;28;20217;-75
2023/04/24 08:55:21;;;;;;;5.10;4.90;;;13.50;99.90;;;;;;4974599;28;20220;-74
2023/04/24 08:57:52;;;;;;;4.37;4.20;;;13.30;99.90;;;;;;4974585;28;20247;-75
2023/04/24 09:00:20;;;;;;;5.13;4.80;;;13.90;99.90;;;;;;4974652;28;20192;-74
2023/04/24 09:02:48;;;;;;;4.60;4.30;;;14.50;99.90;;;;;;4975939;28;20181;-74
2023/04/24 09:05:17;;;;;;;6.37;6.07;;;14.70;99.90;;;;;;4975858;28;20211;-74
2023/04/24 09:07:47;;;;;;;6.13;5.83;;;14.60;99.90;;;;;;4974846;28;20584;-75
2023/04/24 09:10:13;;;;;;;4.27;4.17;;;14.40;99.90;;;;;;4974201;28;20200;-75
2023/04/24 09:12:40;;;;;;;5.03;4.73;;;14.70;99.90;;;;;;4968323;28;20210;-74
2023/04/24 09:15:08;;;;;;;7.43;7.00;;;14.60;99.90;;;;;;4977505;28;20185;-74
2023/04/24 09:17:34;;;;;;;5.37;5.17;;;13.90;99.90;;;;;;5009485;23;20260;-76
2023/04/24 09:20:00;;;;;;;5.03;4.63;;;13.60;99.90;;;;;;4992235;28;20176;-76
2023/04/24 09:22:29;;;;;;;7.17;6.80;;;13.20;99.90;;;;;;4986457;28;20192;-75
2023/04/24 09:25:11;;;;;;;14.47;13.70;;;13.00;99.90;;;;;;4977578;28;20185;-74
2023/04/24 09:27:44;;;;;;;16.23;15.30;;;12.80;99.90;;;;;;4983417;28;20204;-75
2023/04/24 09:30:11;;;;;;;12.17;11.50;;;12.70;99.90;;;;;;4998350;28;20183;-76
2023/04/24 09:32:37;;;;;;;8.67;8.17;;;12.70;99.90;;;;;;5000977;28;20271;-77
2023/04/24 09:35:11;;;;;;;9.83;9.33;;;12.90;99.90;;;;;;4996251;28;20189;-78
2023/04/24 09:37:39;;;;;;;11.03;10.53;;;13.00;99.90;;;;;;4993395;28;20204;-76
2023/04/24 09:40:23;;;;;;;10.73;10.23;;;13.20;99.90;;;;;;4993292;28;20695;-76
2023/04/24 09:42:54;;;;;;;12.20;11.63;;;13.00;99.90;;;;;;4994269;28;20191;-76
2023/04/24 09:45:20;;;;;;;11.17;10.57;;;12.70;99.90;;;;;;4993652;28;20605;-77
2023/04/24 09:47:51;;;;;;;8.93;8.53;;;12.50;99.90;;;;;;4993058;28;20243;-77
2023/04/24 09:50:17;;;;;;;7.77;7.47;;;12.30;99.90;;;;;;4994901;28;20876;-76
2023/04/24 09:52:57;;;;;;;24.73;23.53;;;12.00;99.90;;;;;;4993755;28;20216;-77
2023/04/24 09:55:24;;;;;;;29.50;28.03;;;11.90;99.90;;;;;;4996811;28;20184;-77
2023/04/24 09:57:56;;;;;;;31.20;29.73;;;12.00;99.90;;;;;;4994615;28;20184;-77
2023/04/24 10:00:27;;;;;;;30.40;28.97;;;12.40;99.90;;;;;;4994621;28;20625;-76
2023/04/24 10:03:03;;;;;;;7.30;7.00;;;12.90;99.90;;;;;;4994233;28;20196;-74
2023/04/24 10:05:34;;;;;;;6.93;6.63;;;13.50;99.90;;;;;;4993170;28;20184;-76
2023/04/24 10:08:08;;;;;;;9.77;9.37;;;13.60;99.90;;;;;;4992224;28;20645;-76
2023/04/24 10:10:38;;;;;;;7.00;6.70;;;13.90;99.90;;;;;;4995240;28;20237;-75
2023/04/24 10:13:04;;;;;;;8.27;7.50;;;13.80;99.90;;;;;;4992420;28;20224;-75
2023/04/24 10:15:31;;;;;;;6.67;6.33;;;13.50;99.90;;;;;;4992250;28;20188;-75
2023/04/24 10:17:59;;;;;;;6.03;5.73;;;13.80;99.90;;;;;;4990142;28;20714;-75
2023/04/24 10:20:29;;;;;;;5.93;5.63;;;13.80;99.90;;;;;;5004844;28;20596;-74
2023/04/24 10:22:55;;;;;;;3.97;3.87;;;14.30;99.90;;;;;;5000380;28;20180;-75
2023/04/24 10:25:25;;;;;;;6.03;5.60;;;14.50;99.90;;;;;;4993121;28;20189;-76
2023/04/24 10:27:52;;;;;;;4.90;4.50;;;14.00;99.90;;;;;;4992286;28;20188;-75
2023/04/24 10:30:21;;;;;;;4.90;4.57;;;13.70;99.90;;;;;;4991253;28;20191;-75
2023/04/24 10:32:47;;;;;;;4.63;4.33;;;13.60;99.90;;;;;;4992373;28;20331;-75
2023/04/24 10:35:14;;;;;;;4.53;4.33;;;13.50;99.90;;;;;;4992456;28;20708;-76
2023/04/24 10:37:46;;;;;;;4.70;4.50;;;13.30;99.90;;;;;;4990565;28;20707;-76
2023/04/24 10:40:18;;;;;;;4.60;4.40;;;13.60;99.90;;;;;;4992159;28;20284;-76
2023/04/24 10:42:47;;;;;;;4.53;4.20;;;14.00;99.90;;;;;;4992347;28;20310;-76
2023/04/24 10:45:18;;;;;;;7.10;6.60;;;14.10;99.90;;;;;;4991959;28;20187;-76
2023/04/24 10:47:52;;;;;;;8.93;8.43;;;14.40;99.90;;;;;;4984446;28;20716;-76
2023/04/24 10:50:18;;;;;;;7.93;7.63;;;14.90;99.90;;;;;;4973100;28;20196;-76
2023/04/24 10:52:45;;;;;;;9.40;9.00;;;15.40;99.90;;;;;;4972500;28;20225;-76
2023/04/24 10:55:13;;;;;;;8.67;8.27;;;15.80;99.90;;;;;;4986295;28;20711;-76
2023/04/24 10:57:38;;;;;;;5.43;5.20;;;16.00;99.90;;;;;;4971801;28;20208;-76
2023/04/24 11:00:16;;;;;;;4.90;4.70;;;15.30;99.90;;;;;;4974961;28;20580;-75
2023/04/24 11:02:48;;;;;;;4.13;3.87;;;14.50;99.90;;;;;;4972843;28;20192;-76
2023/04/24 11:05:18;;;;;;;6.63;6.33;;;14.00;99.90;;;;;;4974157;28;20199;-76
2023/04/24 11:08:11;;;;;;;10.17;9.67;;;13.60;99.90;;;;;;4989792;28;20208;-76
2023/04/24 11:11:01;;;;;;;10.13;9.73;;;13.30;99.90;;;;;;4991402;28;20279;-76
2023/04/24 11:13:56;;;;;;;9.50;9.00;;;13.20;99.90;;;;;;4981798;28;20212;-76
2023/04/24 11:16:41;;;;;;;8.47;7.97;;;13.20;99.90;;;;;;4989757;28;20567;-75
2023/04/24 11:19:18;;;;;;;9.20;8.60;;;13.30;99.90;;;;;;4990911;28;20199;-75
2023/04/24 11:22:02;;;;;;;8.17;7.83;;;13.50;99.90;;;;;;4990480;28;20711;-76
2023/04/24 11:24:37;;;;;;;9.17;8.57;;;13.70;99.90;;;;;;4989843;28;20208;-76
2023/04/24 11:27:03;;;;;;;10.03;9.53;;;13.70;99.90;;;;;;4990051;28;20294;-75
2023/04/24 11:29:54;;;;;;;8.50;8.10;;;13.80;99.90;;;;;;4989760;28;20183;-76
2023/04/24 11:32:26;;;;;;;9.60;9.20;;;13.90;99.90;;;;;;4989844;28;20208;-76
2023/04/24 11:34:54;;;;;;;9.90;9.50;;;14.00;99.90;;;;;;4991273;28;20615;-76
2023/04/24 11:37:21;;;;;;;9.17;8.67;;;14.10;99.90;;;;;;4990134;28;20200;-77
2023/04/24 11:39:49;;;;;;;10.00;9.50;;;14.00;99.90;;;;;;4989700;28;20184;-77
2023/04/24 11:42:15;;;;;;;9.60;9.20;;;13.80;99.90;;;;;;4990393;28;20188;-76
2023/04/24 11:44:42;;;;;;;10.23;9.73;;;13.80;99.90;;;;;;4992650;28;20198;-76
2023/04/24 11:47:08;;;;;;;9.70;9.27;;;13.60;99.90;;;;;;4994137;28;20200;-76
2023/04/24 11:49:37;;;;;;;10.63;10.20;;;13.40;99.90;;;;;;4995297;28;20237;-76
2023/04/24 11:52:03;;;;;;;8.00;7.70;;;13.10;99.90;;;;;;4991092;28;20243;-77
2023/04/24 11:54:29;;;;;;;6.30;6.10;;;12.90;99.90;;;;;;4990829;28;20180;-77
2023/04/24 11:56:56;;;;;;;6.47;6.17;;;13.00;99.90;;;;;;4991329;28;20548;-77
2023/04/24 11:59:22;;;;;;;8.67;8.33;;;13.10;99.90;;;;;;4997707;28;20180;-77
2023/04/24 12:01:49;;;;;;;9.30;8.90;;;13.60;99.90;;;;;;4995196;28;20184;-77
2023/04/24 12:04:16;;;;;;;10.07;9.63;;;14.00;99.90;;;;;;4991690;28;20334;-77
2023/04/24 12:07:02;;;;;;;8.23;7.83;;;14.50;99.90;;;;;;4991332;28;20200;-77
2023/04/24 12:09:28;;;;;;;7.20;6.60;;;14.50;99.90;;;;;;4992615;28;20683;-78
2023/04/24 12:11:56;;;;;;;5.20;5.00;;;14.50;99.90;;;;;;4994141;28;20207;-75
2023/04/24 12:14:23;;;;;;;5.67;5.47;;;14.50;99.90;;;;;;4993645;28;20272;-78
2023/04/24 12:16:50;;;;;;;6.67;6.43;;;14.50;99.90;;;;;;4990885;28;20244;-75
2023/04/24 12:19:22;;;;;;;7.23;6.83;;;14.50;99.90;;;;;;4990887;28;20730;-76
2023/04/24 12:22:05;;;;;;;7.77;7.47;;;14.00;99.90;;;;;;4991033;28;20184;-76
2023/04/24 12:24:31;;;;;;;11.90;11.00;;;13.50;99.90;;;;;;4989666;28;20234;-76
2023/04/24 12:26:58;;;;;;;10.87;10.37;;;13.20;99.90;;;;;;4990543;28;20303;-76
2023/04/24 12:29:24;;;;;;;8.83;8.47;;;13.00;99.90;;;;;;4990533;28;20603;-76
2023/04/24 12:31:51;;;;;;;7.00;6.60;;;12.90;99.90;;;;;;4990916;28;20617;-76
2023/04/24 12:34:22;;;;;;;6.67;6.23;;;12.70;99.90;;;;;;4990679;28;20260;-77
2023/04/24 12:36:48;;;;;;;4.70;4.60;;;13.20;99.90;;;;;;4989609;28;20258;-77
2023/04/24 12:39:19;;;;;;;10.20;9.53;;;14.80;99.90;;;;;;4990652;28;20653;-77
2023/04/24 12:41:56;;;;;;;8.97;8.57;;;15.80;99.90;;;;;;4992387;28;20184;-77
2023/04/24 12:44:35;;;;;;;9.97;9.37;;;16.10;99.90;;;;;;4994508;28;20230;-77
2023/04/24 12:47:01;;;;;;;4.70;4.50;;;15.60;99.90;;;;;;4993761;28;20253;-77
2023/04/24 12:49:30;;;;;;;4.83;4.63;;;15.30;99.90;;;;;;4992855;28;20644;-77
2023/04/24 12:51:56;;;;;;;5.13;4.83;;;14.80;99.90;;;;;;4992958;28;20208;-77
2023/04/24 12:54:22;;;;;;;11.17;10.50;;;14.40;99.90;;;;;;4993597;28;20586;-77
2023/04/24 12:56:48;;;;;;;10.30;9.90;;;14.10;99.90;;;;;;4993029;28;20211;-77
2023/04/24 12:59:14;;;;;;;11.50;10.90;;;13.80;99.90;;;;;;4992373;28;20268;-76
2023/04/24 13:01:40;;;;;;;12.50;11.80;;;13.70;99.90;;;;;;4993772;28;20185;-77
2023/04/24 13:04:06;;;;;;;12.03;11.43;;;13.60;99.90;;;;;;4993836;28;20191;-76
2023/04/24 13:06:33;;;;;;;11.37;10.87;;;13.50;99.90;;;;;;4992713;28;20223;-77
2023/04/24 13:08:58;;;;;;;10.20;9.70;;;13.30;99.90;;;;;;4993096;28;20649;-77
2023/04/24 13:11:24;;;;;;;9.67;9.00;;;13.20;99.90;;;;;;4993731;28;20238;-76
2023/04/24 13:13:50;;;;;;;9.90;9.30;;;13.20;99.90;;;;;;4993756;28;20188;-76
2023/04/24 13:16:17;;;;;;;10.30;9.80;;;13.20;99.90;;;;;;4991992;28;20250;-76
2023/04/24 13:18:42;;;;;;;11.13;10.63;;;13.30;99.90;;;;;;4993310;28;20177;-76
2023/04/24 13:21:08;;;;;;;10.50;9.60;;;13.50;99.90;;;;;;4993610;28;20180;-76
2023/04/24 13:23:34;;;;;;;11.30;10.70;;;13.60;99.90;;;;;;4991984;28;20185;-76
2023/04/24 13:26:01;;;;;;;11.00;10.40;;;13.60;99.90;;;;;;4992517;28;20259;-77
2023/04/24 13:28:27;;;;;;;11.40;10.87;;;13.60;99.90;;;;;;4992555;28;20785;-76
2023/04/24 13:30:53;;;;;;;12.13;11.33;;;13.50;99.90;;;;;;4993515;28;20213;-77
2023/04/24 13:33:19;;;;;;;7.97;7.57;;;13.30;99.90;;;;;;4993491;28;20250;-76
2023/04/24 13:35:45;;;;;;;10.47;9.97;;;12.80;99.90;;;;;;4996332;28;20208;-76
2023/04/24 13:38:10;;;;;;;22.60;21.50;;;12.40;99.90;;;;;;4995925;28;20247;-76
2023/04/24 13:40:37;;;;;;;12.43;11.53;;;11.90;99.90;;;;;;4992369;28;20572;-76
2023/04/24 13:43:03;;;;;;;4.27;3.97;;;11.30;99.90;;;;;;4992297;28;20208;-76
2023/04/24 13:45:29;;;;;;;7.43;7.13;;;11.00;99.90;;;;;;4992345;28;20188;-76
2023/04/24 13:47:56;;;;;;;4.87;4.40;;;11.00;99.90;;;;;;4991915;28;20181;-76
2023/04/24 13:50:22;;;;;;;4.30;4.07;;;11.40;99.90;;;;;;4993520;28;20208;-77
2023/04/24 13:52:48;;;;;;;3.87;3.67;;;12.40;99.90;;;;;;4992567;28;20634;-77
2023/04/24 13:55:14;;;;;;;9.20;8.70;;;13.70;99.90;;;;;;4991583;28;20191;-76
2023/04/24 13:57:40;;;;;;;15.77;14.90;;;15.80;99.90;;;;;;4989910;28;20200;-76
2023/04/24 14:00:06;;;;;;;12.90;11.97;;;16.80;99.90;;;;;;4991412;28;20243;-77
2023/04/24 14:02:32;;;;;;;5.53;5.30;;;16.60;99.90;;;;;;4995194;28;20184;-76
2023/04/24 14:04:57;;;;;;;6.57;5.90;;;16.80;99.90;;;;;;4991636;28;20180;-76
2023/04/24 14:07:23;;;;;;;8.23;7.83;;;16.70;99.90;;;;;;4991855;28;20215;-76
2023/04/24 14:09:49;;;;;;;6.43;6.13;;;16.20;99.90;;;;;;4991358;28;20188;-75
2023/04/24 14:12:19;;;;;;;7.77;7.40;;;15.60;99.90;;;;;;4991536;28;20208;-76
2023/04/24 14:14:46;;;;;;;9.07;8.57;;;14.90;99.90;;;;;;4992681;28;20188;-77
2023/04/24 14:17:11;;;;;;;6.20;5.90;;;14.10;99.90;;;;;;4992864;28;20212;-77
2023/04/24 14:19:37;;;;;;;4.57;4.17;;;13.80;99.90;;;;;;4991752;28;20192;-77
2023/04/24 14:22:03;;;;;;;8.13;7.73;;;13.40;99.90;;;;;;4992720;28;20223;-76
2023/04/24 14:24:29;;;;;;;38.30;36.50;;;13.00;99.90;;;;;;4992255;28;20203;-76
2023/04/24 14:26:56;;;;;;;22.33;21.23;;;12.60;99.90;;;;;;4991903;28;20303;-76
2023/04/24 14:29:21;;;;;;;3.70;3.60;;;12.00;99.90;;;;;;4991036;28;20180;-77
2023/04/24 14:31:47;;;;;;;7.80;7.50;;;11.30;99.90;;;;;;4990926;28;20216;-77
2023/04/24 14:34:14;;;;;;;4.10;3.90;;;11.20;99.90;;;;;;4992582;28;20262;-77
2023/04/24 14:36:40;;;;;;;5.47;5.27;;;11.30;99.90;;;;;;4991015;28;20193;-76
2023/04/24 14:39:06;;;;;;;3.77;3.67;;;11.60;99.90;;;;;;4990654;28;20558;-77
2023/04/24 14:41:35;;;;;;;3.60;3.40;;;12.20;99.90;;;;;;4991214;28;20553;-76
2023/04/24 14:44:02;;;;;;;3.57;3.40;;;12.90;99.90;;;;;;4992060;28;20185;-77
2023/04/24 14:46:30;;;;;;;5.90;5.60;;;13.80;99.90;;;;;;4991912;28;20208;-77
2023/04/24 14:48:56;;;;;;;20.67;19.60;;;15.20;99.90;;;;;;4992461;28;20188;-76
2023/04/24 14:51:22;;;;;;;7.53;7.23;;;15.40;99.90;;;;;;4996620;28;20184;-76
2023/04/24 14:53:48;;;;;;;14.87;14.23;;;15.00;99.90;;;;;;4993143;28;20211;-77
2023/04/24 14:56:14;;;;;;;16.90;16.10;;;14.50;99.90;;;;;;4990569;28;20254;-75
2023/04/24 14:58:40;;;;;;;20.63;19.73;;;14.40;99.90;;;;;;4991518;28;20215;-76
2023/04/24 15:01:06;;;;;;;5.53;5.33;;;14.60;99.90;;;;;;4990628;28;20200;-76
2023/04/24 15:03:32;;;;;;;6.77;6.30;;;15.70;99.90;;;;;;4990216;28;20188;-77
2023/04/24 15:05:57;;;;;;;5.80;5.60;;;16.80;99.90;;;;;;4990288;28;20204;-77
2023/04/24 15:08:23;;;;;;;8.80;8.43;;;18.10;99.90;;;;;;4991436;28;20206;-76
2023/04/24 15:10:49;;;;;;;12.90;12.33;;;18.90;99.90;;;;;;4991830;28;20208;-77
2023/04/24 15:13:15;;;;;;;4.23;4.10;;;19.00;99.90;;;;;;4990687;28;20212;-77
2023/04/24 15:15:41;;;;;;;5.60;5.30;;;18.60;99.90;;;;;;4991530;28;20180;-76
2023/04/24 15:18:10;;;;;;;5.20;5.00;;;17.40;99.90;;;;;;5011558;23;20696;-74
2023/04/24 15:20:36;;;;;;;5.93;5.73;;;16.70;99.90;;;;;;4990206;28;20185;-75
2023/04/24 15:23:02;;;;;;;15.70;14.90;;;15.50;99.90;;;;;;4990365;28;20204;-75
2023/04/24 15:25:28;;;;;;;14.47;13.43;;;15.30;99.90;;;;;;4991856;28;20257;-74
2023/04/24 15:27:54;;;;;;;15.30;14.50;;;15.20;99.90;;;;;;4990584;28;20530;-75
2023/04/24 15:30:20;;;;;;;12.13;11.63;;;15.50;99.90;;;;;;4991344;28;20583;-75
2023/04/24 15:32:46;;;;;;;11.33;10.83;;;16.50;99.90;;;;;;4990124;28;20208;-75
2023/04/24 15:35:11;;;;;;;6.50;6.20;;;17.50;99.90;;;;;;4989850;28;20215;-75
2023/04/24 15:37:38;;;;;;;5.27;5.07;;;18.50;99.90;;;;;;4989551;28;20209;-74
2023/04/24 15:40:06;;;;;;;5.73;5.33;;;17.70;99.90;;;;;;4991230;28;20181;-74